createdAt,value
2019-03-18T00:00:06.966Z,4.28
2019-03-18T00:01:08.370Z,4.25
2019-03-18T00:02:09.754Z,4.32
2019-03-18T00:03:11.146Z,4.28
2019-03-18T00:04:12.534Z,4.28
2019-03-18T00:05:13.940Z,4.24
2019-03-18T00:06:15.334Z,4.26
2019-03-18T00:07:16.719Z,4.25
2019-03-18T00:08:18.112Z,4.26
2019-03-18T00:09:19.490Z,4.26
2019-03-18T00:10:20.882Z,4.25
2019-03-18T00:11:22.268Z,4.24
2019-03-18T00:12:23.650Z,4.31
2019-03-18T00:13:25.057Z,4.25
2019-03-18T00:14:26.509Z,4.24
2019-03-18T00:15:27.898Z,4.26
2019-03-18T00:16:29.292Z,4.29
2019-03-18T00:17:30.676Z,4.32
2019-03-18T00:18:32.069Z,4.24
2019-03-18T00:19:33.483Z,4.28
2019-03-18T00:20:35.822Z,4.28
2019-03-18T00:21:39.258Z,4.31
2019-03-18T00:22:40.706Z,4.26
2019-03-18T00:23:42.097Z,4.29
2019-03-18T00:24:43.488Z,4.25
2019-03-18T00:25:44.873Z,4.29
2019-03-18T00:26:46.282Z,4.36
2019-03-18T00:27:47.678Z,4.34
2019-03-18T00:28:49.512Z,4.32
2019-03-18T00:29:51.098Z,4.35
2019-03-18T00:30:52.513Z,4.31
2019-03-18T00:31:55.921Z,4.28
2019-03-18T00:32:57.670Z,4.28
2019-03-18T00:33:59.112Z,4.29
2019-03-18T00:35:00.535Z,4.28
2019-03-18T00:36:02.546Z,4.34
2019-03-18T00:37:03.936Z,4.28
2019-03-18T00:38:05.374Z,4.21
2019-03-18T00:39:07.213Z,4.24
2019-03-18T00:40:08.615Z,4.29
2019-03-18T00:41:10.017Z,4.24
2019-03-18T00:42:11.429Z,4.26
2019-03-18T00:43:12.875Z,4.26
2019-03-18T00:44:14.281Z,4.26
2019-03-18T00:45:15.935Z,4.25
2019-03-18T00:46:17.052Z,4.24
2019-03-18T00:47:18.484Z,4.25
2019-03-18T00:48:19.866Z,4.26
2019-03-18T00:49:21.256Z,4.28
2019-03-18T00:50:22.642Z,4.28
2019-03-18T00:51:24.077Z,4.29
2019-03-18T00:52:26.354Z,4.28
2019-03-18T00:53:27.766Z,4.21
2019-03-18T00:54:29.123Z,4.21
2019-03-18T00:55:30.524Z,4.25
2019-03-18T00:56:32.032Z,4.10
2019-03-18T00:57:33.422Z,4.32
2019-03-18T00:58:34.814Z,4.25
2019-03-18T00:59:36.216Z,4.29
2019-03-18T01:00:37.628Z,4.18
2019-03-18T01:01:39.069Z,4.24
2019-03-18T01:02:40.458Z,4.25
2019-03-18T01:03:41.843Z,4.18
2019-03-18T01:04:43.261Z,4.18
2019-03-18T01:05:44.643Z,4.20
2019-03-18T01:06:46.144Z,4.29
2019-03-18T01:07:47.525Z,4.28
2019-03-18T01:08:49.415Z,4.14
2019-03-18T01:09:50.819Z,4.21
2019-03-18T01:10:52.217Z,4.17
2019-03-18T01:11:53.612Z,4.25
2019-03-18T01:12:55.008Z,4.25
2019-03-18T01:13:56.429Z,4.21
2019-03-18T01:14:57.812Z,4.28
2019-03-18T01:15:59.212Z,4.20
2019-03-18T01:17:00.602Z,4.18
2019-03-18T01:18:02.004Z,4.13
2019-03-18T01:19:03.390Z,4.11
2019-03-18T01:20:04.795Z,4.20
2019-03-18T01:21:06.177Z,4.13
2019-03-18T01:22:07.572Z,4.08
2019-03-18T01:23:08.990Z,4.17
2019-03-18T01:24:10.364Z,4.17
2019-03-18T01:25:11.764Z,4.08
2019-03-18T01:26:13.150Z,4.11
2019-03-18T01:27:14.545Z,4.20
2019-03-18T01:28:15.931Z,4.06
2019-03-18T01:29:17.321Z,4.14
2019-03-18T01:30:18.701Z,4.07
2019-03-18T01:31:20.092Z,4.06
2019-03-18T01:32:21.479Z,4.04
2019-03-18T01:33:22.867Z,4.07
2019-03-18T01:34:24.266Z,4.13
2019-03-18T01:35:25.659Z,4.10
2019-03-18T01:36:27.049Z,4.16
2019-03-18T01:37:28.458Z,4.10
2019-03-18T01:38:29.875Z,4.13
2019-03-18T01:39:31.261Z,4.14
2019-03-18T01:40:32.647Z,4.06
2019-03-18T01:41:34.033Z,4.10
2019-03-18T01:42:35.421Z,4.08
2019-03-18T01:43:36.811Z,4.13
2019-03-18T01:44:38.211Z,4.08
2019-03-18T01:45:40.911Z,4.04
2019-03-18T01:46:40.957Z,4.10
2019-03-18T01:47:42.351Z,4.04
2019-03-18T01:48:43.741Z,4.11
2019-03-18T01:49:45.127Z,4.11
2019-03-18T01:50:46.518Z,4.18
2019-03-18T01:51:47.912Z,4.10
2019-03-18T01:52:49.316Z,4.17
2019-03-18T01:53:50.723Z,4.14
2019-03-18T01:54:52.124Z,4.17
2019-03-18T01:55:53.532Z,4.11
2019-03-18T01:56:54.923Z,4.21
2019-03-18T01:57:56.310Z,4.17
2019-03-18T01:58:57.701Z,4.24
2019-03-18T01:59:59.123Z,4.29
2019-03-18T02:01:00.480Z,4.28
2019-03-18T02:02:01.901Z,4.32
2019-03-18T02:03:03.295Z,4.29
2019-03-18T02:04:04.696Z,4.25
2019-03-18T02:05:06.082Z,4.31
2019-03-18T02:06:07.483Z,4.31
2019-03-18T02:07:08.864Z,4.36
2019-03-18T02:08:10.255Z,4.32
2019-03-18T02:09:11.654Z,4.24
2019-03-18T02:10:13.033Z,4.28
2019-03-18T02:11:14.426Z,4.36
2019-03-18T02:12:15.826Z,4.29
2019-03-18T02:13:17.210Z,4.29
2019-03-18T02:14:18.619Z,4.35
2019-03-18T02:15:20.013Z,4.38
2019-03-18T02:16:21.412Z,4.38
2019-03-18T02:17:22.810Z,4.46
2019-03-18T02:18:24.194Z,4.43
2019-03-18T02:19:25.588Z,4.42
2019-03-18T02:20:26.983Z,4.49
2019-03-18T02:21:28.376Z,4.35
2019-03-18T02:22:29.768Z,4.36
2019-03-18T02:23:31.161Z,4.44
2019-03-18T02:24:32.540Z,4.51
2019-03-18T02:25:33.935Z,4.54
2019-03-18T02:26:35.382Z,4.46
2019-03-18T02:27:36.709Z,4.38
2019-03-18T02:28:38.092Z,4.42
2019-03-18T02:29:39.481Z,4.39
2019-03-18T02:30:40.882Z,4.42
2019-03-18T02:31:42.267Z,4.39
2019-03-18T02:32:43.672Z,4.39
2019-03-18T02:33:45.075Z,4.46
2019-03-18T02:34:46.477Z,4.36
2019-03-18T02:35:47.858Z,4.44
2019-03-18T02:36:49.222Z,4.47
2019-03-18T02:37:50.618Z,4.49
2019-03-18T02:38:51.996Z,4.42
2019-03-18T02:39:53.392Z,4.42
2019-03-18T02:40:54.823Z,4.35
2019-03-18T02:41:56.212Z,4.36
2019-03-18T02:42:57.616Z,4.44
2019-03-18T02:43:59.019Z,4.44
2019-03-18T02:45:00.510Z,4.42
2019-03-18T02:46:10.067Z,4.38
2019-03-18T02:47:03.153Z,4.39
2019-03-18T02:48:04.570Z,4.42
2019-03-18T02:49:05.961Z,4.43
2019-03-18T02:50:07.357Z,4.46
2019-03-18T02:51:08.751Z,4.51
2019-03-18T02:52:10.146Z,4.43
2019-03-18T02:53:11.533Z,4.56
2019-03-18T02:54:12.940Z,4.59
2019-03-18T02:55:14.336Z,4.59
2019-03-18T02:56:15.741Z,4.61
2019-03-18T02:57:17.125Z,4.61
2019-03-18T02:58:18.515Z,4.61
2019-03-18T02:59:19.901Z,4.67
2019-03-18T03:00:21.296Z,4.65
2019-03-18T03:01:22.671Z,4.69
2019-03-18T03:02:24.076Z,4.84
2019-03-18T03:03:25.452Z,4.75
2019-03-18T03:04:26.844Z,4.80
2019-03-18T03:05:28.237Z,4.83
2019-03-18T03:06:29.628Z,4.86
2019-03-18T03:07:31.036Z,4.84
2019-03-18T03:08:32.425Z,4.90
2019-03-18T03:09:33.821Z,4.90
2019-03-18T03:10:35.207Z,4.90
2019-03-18T03:11:36.609Z,4.99
2019-03-18T03:12:37.985Z,4.93
2019-03-18T03:13:39.382Z,4.96
2019-03-18T03:14:40.769Z,4.94
2019-03-18T03:15:42.173Z,5.02
2019-03-18T03:16:43.604Z,4.99
2019-03-18T03:17:44.953Z,4.99
2019-03-18T03:18:46.351Z,4.94
2019-03-18T03:19:47.729Z,5.02
2019-03-18T03:20:49.125Z,5.02
2019-03-18T03:21:50.513Z,5.04
2019-03-18T03:22:51.899Z,4.99
2019-03-18T03:23:53.293Z,5.02
2019-03-18T03:24:54.684Z,5.08
2019-03-18T03:25:56.086Z,5.08
2019-03-18T03:26:57.504Z,5.05
2019-03-18T03:27:58.913Z,5.12
2019-03-18T03:29:00.303Z,5.11
2019-03-18T03:30:01.729Z,5.05
2019-03-18T03:31:03.094Z,5.12
2019-03-18T03:32:04.489Z,5.12
2019-03-18T03:33:05.880Z,5.09
2019-03-18T03:34:12.995Z,5.05
2019-03-18T03:35:08.598Z,5.09
2019-03-18T03:36:10.012Z,5.14
2019-03-18T03:37:11.395Z,5.15
2019-03-18T03:38:12.771Z,5.11
2019-03-18T03:39:14.178Z,5.14
2019-03-18T03:40:15.582Z,5.11
2019-03-18T03:41:18.010Z,5.11
2019-03-18T03:42:18.334Z,5.15
2019-03-18T03:43:19.739Z,5.11
2019-03-18T03:44:21.133Z,5.20
2019-03-18T03:45:22.520Z,5.22
2019-03-18T03:46:23.912Z,5.19
2019-03-18T03:47:25.949Z,5.26
2019-03-18T03:48:27.361Z,5.26
2019-03-18T03:49:28.742Z,5.27
2019-03-18T03:50:30.128Z,5.32
2019-03-18T03:51:31.522Z,5.29
2019-03-18T03:52:32.921Z,5.30
2019-03-18T03:53:34.302Z,5.30
2019-03-18T03:54:35.725Z,5.32
2019-03-18T03:55:37.147Z,5.26
2019-03-18T03:56:38.522Z,5.30
2019-03-18T03:57:39.900Z,5.30
2019-03-18T03:58:41.298Z,5.35
2019-03-18T03:59:42.686Z,5.27
2019-03-18T04:00:44.073Z,5.37
2019-03-18T04:01:45.466Z,5.24
2019-03-18T04:02:46.858Z,5.27
2019-03-18T04:03:48.243Z,5.35
2019-03-18T04:04:49.623Z,5.33
2019-03-18T04:05:51.005Z,5.29
2019-03-18T04:06:52.409Z,5.29
2019-03-18T04:07:53.812Z,5.30
2019-03-18T04:08:55.211Z,5.27
2019-03-18T04:09:56.583Z,5.29
2019-03-18T04:10:57.970Z,5.29
2019-03-18T04:11:59.370Z,5.27
2019-03-18T04:13:00.750Z,5.29
2019-03-18T04:14:02.145Z,5.32
2019-03-18T04:15:03.548Z,5.26
2019-03-18T04:16:04.925Z,5.38
2019-03-18T04:17:06.316Z,5.30
2019-03-18T04:18:07.733Z,5.38
2019-03-18T04:19:09.120Z,5.37
2019-03-18T04:20:10.515Z,5.35
2019-03-18T04:21:11.901Z,5.33
2019-03-18T04:22:13.285Z,5.40
2019-03-18T04:23:14.672Z,5.38
2019-03-18T04:24:16.057Z,5.37
2019-03-18T04:25:17.450Z,5.41
2019-03-18T04:26:18.844Z,5.45
2019-03-18T04:27:20.237Z,5.38
2019-03-18T04:28:21.632Z,5.38
2019-03-18T04:29:23.038Z,5.45
2019-03-18T04:30:24.405Z,5.47
2019-03-18T04:31:25.799Z,5.45
2019-03-18T04:32:27.178Z,5.42
2019-03-18T04:33:28.574Z,5.42
2019-03-18T04:34:29.968Z,5.40
2019-03-18T04:35:31.348Z,5.42
2019-03-18T04:36:32.753Z,5.41
2019-03-18T04:37:34.148Z,5.45
2019-03-18T04:38:35.535Z,5.41
2019-03-18T04:39:36.924Z,5.37
2019-03-18T04:40:38.322Z,5.42
2019-03-18T04:41:39.705Z,5.42
2019-03-18T04:42:41.108Z,5.45
2019-03-18T04:43:42.498Z,5.40
2019-03-18T04:44:43.884Z,5.47
2019-03-18T04:45:45.271Z,5.38
2019-03-18T04:46:46.672Z,5.41
2019-03-18T04:47:48.058Z,5.51
2019-03-18T04:48:49.447Z,5.48
2019-03-18T04:49:50.852Z,5.41
2019-03-18T04:50:52.243Z,5.42
2019-03-18T04:51:53.636Z,5.58
2019-03-18T04:52:55.023Z,5.40
2019-03-18T04:53:56.407Z,5.49
2019-03-18T04:54:57.784Z,5.44
2019-03-18T04:55:59.175Z,5.49
2019-03-18T04:57:00.563Z,5.56
2019-03-18T04:58:01.946Z,5.48
2019-03-18T04:59:03.329Z,5.52
2019-03-18T05:00:04.749Z,5.51
2019-03-18T05:01:06.107Z,5.52
2019-03-18T05:02:07.496Z,5.59
2019-03-18T05:03:08.880Z,5.56
2019-03-18T05:04:10.272Z,5.49
2019-03-18T05:05:11.662Z,5.58
2019-03-18T05:06:13.049Z,5.47
2019-03-18T05:07:14.440Z,5.47
2019-03-18T05:08:15.822Z,5.40
2019-03-18T05:09:17.214Z,5.52
2019-03-18T05:10:18.608Z,5.44
2019-03-18T05:11:19.996Z,5.47
2019-03-18T05:12:21.388Z,5.52
2019-03-18T05:13:22.774Z,5.51
2019-03-18T05:14:24.165Z,5.56
2019-03-18T05:15:25.562Z,5.55
2019-03-18T05:16:26.945Z,5.52
2019-03-18T05:17:28.335Z,5.58
2019-03-18T05:18:29.718Z,5.45
2019-03-18T05:19:31.111Z,5.42
2019-03-18T05:20:32.498Z,5.44
2019-03-18T05:21:33.897Z,5.42
2019-03-18T05:22:35.283Z,5.42
2019-03-18T05:23:36.665Z,5.51
2019-03-18T05:24:38.071Z,5.49
2019-03-18T05:25:39.457Z,5.55
2019-03-18T05:26:40.843Z,5.56
2019-03-18T05:27:42.237Z,5.51
2019-03-18T05:28:43.623Z,5.51
2019-03-18T05:29:45.015Z,5.40
2019-03-18T05:30:46.409Z,5.44
2019-03-18T05:31:47.796Z,5.55
2019-03-18T05:32:49.186Z,5.58
2019-03-18T05:33:50.587Z,5.48
2019-03-18T05:34:51.988Z,5.52
2019-03-18T05:35:53.370Z,5.49
2019-03-18T05:36:54.761Z,5.44
2019-03-18T05:37:56.152Z,5.49
2019-03-18T05:38:57.543Z,5.40
2019-03-18T05:39:58.922Z,5.49
2019-03-18T05:41:00.313Z,5.59
2019-03-18T05:42:01.713Z,5.52
2019-03-18T05:43:03.104Z,5.56
2019-03-18T05:44:04.503Z,5.58
2019-03-18T05:45:05.917Z,5.62
2019-03-18T05:46:07.308Z,5.62
2019-03-18T05:47:08.702Z,5.55
2019-03-18T05:48:10.101Z,5.51
2019-03-18T05:49:11.497Z,5.62
2019-03-18T05:50:12.906Z,5.63
2019-03-18T05:51:14.301Z,5.58
2019-03-18T05:52:15.711Z,5.60
2019-03-18T05:53:17.132Z,5.59
2019-03-18T05:54:18.515Z,5.66
2019-03-18T05:55:19.899Z,5.55
2019-03-18T05:56:21.321Z,5.67
2019-03-18T05:57:22.729Z,5.63
2019-03-18T05:58:24.114Z,5.62
2019-03-18T05:59:25.525Z,5.60
2019-03-18T06:00:26.908Z,5.67
2019-03-18T06:01:28.334Z,5.62
2019-03-18T06:02:29.721Z,5.70
2019-03-18T06:03:31.112Z,5.66
2019-03-18T06:04:32.500Z,5.63
2019-03-18T06:05:33.912Z,5.63
2019-03-18T06:06:35.966Z,5.67
2019-03-18T06:07:37.440Z,5.67
2019-03-18T06:08:38.836Z,5.65
2019-03-18T06:09:40.237Z,5.65
2019-03-18T06:10:42.262Z,5.66
2019-03-18T06:11:43.680Z,5.59
2019-03-18T06:12:45.110Z,5.70
2019-03-18T06:13:46.569Z,5.63
2019-03-18T06:14:47.958Z,5.73
2019-03-18T06:15:49.471Z,5.73
2019-03-18T06:16:50.869Z,5.78
2019-03-18T06:17:53.073Z,5.75
2019-03-18T06:18:53.653Z,5.81
2019-03-18T06:19:55.210Z,5.78
2019-03-18T06:20:56.636Z,5.88
2019-03-18T06:21:58.064Z,5.87
2019-03-18T06:22:59.509Z,5.90
2019-03-18T06:24:00.908Z,5.90
2019-03-18T06:25:02.310Z,5.96
2019-03-18T06:26:03.796Z,5.96
2019-03-18T06:27:05.982Z,5.98
2019-03-18T06:28:07.427Z,5.99
2019-03-18T06:29:08.765Z,5.96
2019-03-18T06:30:10.179Z,5.96
2019-03-18T06:31:11.584Z,5.98
2019-03-18T06:32:13.039Z,5.96
2019-03-18T06:33:14.446Z,6.06
2019-03-18T06:34:15.878Z,5.96
2019-03-18T06:35:20.187Z,6.01
2019-03-18T06:36:18.713Z,6.01
2019-03-18T06:37:20.175Z,5.99
2019-03-18T06:38:21.603Z,5.99
2019-03-18T06:39:23.033Z,5.99
2019-03-18T06:40:24.476Z,6.03
2019-03-18T06:41:25.960Z,6.06
2019-03-18T06:42:27.958Z,5.95
2019-03-18T06:43:29.516Z,6.01
2019-03-18T06:44:30.990Z,6.16
2019-03-18T06:45:32.428Z,6.20
2019-03-18T06:46:33.888Z,6.27
2019-03-18T06:47:35.267Z,6.28
2019-03-18T06:48:36.732Z,6.30
2019-03-18T06:49:38.137Z,6.45
2019-03-18T06:50:39.549Z,6.57
2019-03-18T06:51:40.943Z,6.78
2019-03-18T06:52:42.358Z,6.97
2019-03-18T06:53:43.913Z,7.09
2019-03-18T06:54:45.317Z,7.19
2019-03-18T06:55:46.723Z,7.34
2019-03-18T06:56:48.151Z,7.39
2019-03-18T06:57:49.557Z,7.41
2019-03-18T06:58:50.962Z,7.45
2019-03-18T06:59:52.362Z,7.51
2019-03-18T07:00:53.840Z,7.58
2019-03-18T07:01:55.238Z,7.89
2019-03-18T07:02:56.640Z,8.04
2019-03-18T07:03:58.070Z,8.32
2019-03-18T07:04:59.603Z,8.47
2019-03-18T07:06:00.900Z,8.45
2019-03-18T07:07:02.344Z,8.34
2019-03-18T07:08:03.778Z,8.36
2019-03-18T07:09:05.174Z,8.28
2019-03-18T07:10:06.574Z,8.24
2019-03-18T07:11:07.971Z,8.20
2019-03-18T07:12:09.376Z,8.13
2019-03-18T07:13:10.801Z,8.04
2019-03-18T07:14:12.204Z,8.07
2019-03-18T07:15:13.601Z,8.13
2019-03-18T07:16:15.107Z,8.43
2019-03-18T07:17:16.580Z,8.54
2019-03-18T07:18:18.918Z,8.68
2019-03-18T07:19:19.406Z,8.71
2019-03-18T07:20:20.699Z,8.64
2019-03-18T07:21:22.124Z,8.68
2019-03-18T07:22:23.562Z,8.83
2019-03-18T07:23:24.945Z,8.98
2019-03-18T07:24:26.361Z,9.01
2019-03-18T07:25:27.799Z,9.00
2019-03-18T07:26:29.199Z,9.03
2019-03-18T07:27:30.608Z,8.88
2019-03-18T07:28:32.028Z,8.82
2019-03-18T07:29:33.421Z,8.70
2019-03-18T07:30:34.814Z,8.52
2019-03-18T07:31:36.244Z,8.49
2019-03-18T07:32:37.638Z,8.34
2019-03-18T07:33:39.042Z,8.07
2019-03-18T07:34:40.438Z,8.02
2019-03-18T07:35:41.875Z,8.03
2019-03-18T07:36:43.278Z,7.85
2019-03-18T07:37:44.674Z,7.99
2019-03-18T07:38:46.156Z,7.86
2019-03-18T07:39:47.556Z,7.81
2019-03-18T07:40:48.950Z,7.81
2019-03-18T07:41:50.381Z,7.86
2019-03-18T07:42:51.767Z,7.88
2019-03-18T07:43:53.224Z,7.82
2019-03-18T07:44:54.642Z,7.69
2019-03-18T07:45:56.040Z,7.69
2019-03-18T07:46:57.463Z,7.58
2019-03-18T07:47:58.857Z,7.55
2019-03-18T07:49:00.245Z,7.50
2019-03-18T07:50:01.690Z,7.51
2019-03-18T07:51:03.074Z,7.57
2019-03-18T07:52:04.471Z,7.45
2019-03-18T07:53:05.868Z,7.45
2019-03-18T07:54:07.292Z,7.30
2019-03-18T07:55:08.673Z,7.47
2019-03-18T07:56:10.077Z,7.37
2019-03-18T07:57:11.496Z,7.44
2019-03-18T07:58:12.902Z,7.29
2019-03-18T07:59:14.326Z,7.32
2019-03-18T08:00:15.763Z,7.36
2019-03-18T08:01:18.122Z,7.30
2019-03-18T08:02:19.545Z,7.27
2019-03-18T08:03:20.985Z,7.27
2019-03-18T08:04:22.374Z,7.41
2019-03-18T08:05:23.770Z,7.41
2019-03-18T08:06:25.176Z,7.60
2019-03-18T08:07:26.651Z,7.74
2019-03-18T08:08:28.083Z,7.82
2019-03-18T08:09:29.423Z,8.03
2019-03-18T08:10:30.852Z,8.29
2019-03-18T08:11:32.333Z,8.55
2019-03-18T08:12:33.817Z,8.97
2019-03-18T08:13:35.229Z,9.34
2019-03-18T08:14:36.680Z,10.24
2019-03-18T08:15:38.083Z,11.54
2019-03-18T08:16:39.499Z,12.46
2019-03-18T08:17:40.914Z,13.38
2019-03-18T08:18:43.445Z,13.98
2019-03-18T08:19:43.699Z,14.04
2019-03-18T08:20:45.106Z,13.98
2019-03-18T08:21:46.513Z,13.63
2019-03-18T08:22:47.989Z,13.27
2019-03-18T08:23:49.387Z,12.80
2019-03-18T08:24:50.858Z,12.31
2019-03-18T08:25:52.261Z,11.97
2019-03-18T08:26:53.725Z,11.51
2019-03-18T08:27:55.152Z,11.30
2019-03-18T08:28:56.552Z,11.01
2019-03-18T08:29:57.956Z,10.75
2019-03-18T08:30:59.423Z,10.46
2019-03-18T08:32:00.826Z,10.24
2019-03-18T08:33:02.239Z,10.10
2019-03-18T08:34:03.644Z,10.07
2019-03-18T08:35:05.049Z,9.62
2019-03-18T08:36:06.463Z,9.56
2019-03-18T08:37:07.861Z,9.41
2019-03-18T08:38:09.276Z,9.32
2019-03-18T08:39:10.686Z,9.16
2019-03-18T08:40:12.114Z,9.13
2019-03-18T08:41:13.521Z,8.98
2019-03-18T08:42:14.929Z,8.82
2019-03-18T08:43:16.333Z,8.85
2019-03-18T08:44:17.723Z,8.83
2019-03-18T08:45:19.125Z,8.80
2019-03-18T08:46:20.547Z,8.76
2019-03-18T08:47:21.945Z,8.68
2019-03-18T08:48:23.375Z,8.54
2019-03-18T08:49:24.769Z,8.57
2019-03-18T08:50:26.163Z,8.45
2019-03-18T08:51:27.576Z,8.50
2019-03-18T08:52:29.004Z,8.39
2019-03-18T08:53:30.422Z,8.39
2019-03-18T08:54:31.880Z,8.37
2019-03-18T08:55:33.302Z,8.34
2019-03-18T08:56:34.743Z,8.42
2019-03-18T08:57:36.226Z,8.40
2019-03-18T08:58:37.718Z,8.42
2019-03-18T08:59:39.076Z,8.43
2019-03-18T09:00:40.489Z,8.50
2019-03-18T09:01:41.934Z,8.45
2019-03-18T09:02:43.384Z,8.47
2019-03-18T09:03:44.837Z,8.39
2019-03-18T09:04:46.260Z,8.43
2019-03-18T09:05:47.731Z,8.50
2019-03-18T09:06:49.141Z,8.50
2019-03-18T09:07:50.551Z,8.45
2019-03-18T09:08:51.969Z,8.47
2019-03-18T09:09:53.361Z,8.46
2019-03-18T09:10:54.826Z,8.47
2019-03-18T09:11:56.251Z,8.43
2019-03-18T09:12:57.642Z,8.49
2019-03-18T09:13:59.044Z,8.39
2019-03-18T09:15:00.453Z,8.45
2019-03-18T09:16:01.932Z,8.40
2019-03-18T09:17:03.370Z,8.24
2019-03-18T09:18:04.808Z,8.29
2019-03-18T09:19:08.851Z,8.25
2019-03-18T09:20:07.595Z,8.29
2019-03-18T09:21:08.989Z,8.32
2019-03-18T09:22:10.406Z,8.28
2019-03-18T09:23:11.804Z,8.28
2019-03-18T09:24:13.278Z,8.22
2019-03-18T09:25:14.794Z,8.24
2019-03-18T09:26:16.173Z,8.31
2019-03-18T09:27:17.585Z,8.32
2019-03-18T09:28:19.082Z,8.31
2019-03-18T09:29:20.488Z,8.39
2019-03-18T09:30:21.884Z,8.37
2019-03-18T09:31:23.379Z,8.42
2019-03-18T09:32:24.693Z,8.47
2019-03-18T09:33:26.116Z,8.47
2019-03-18T09:34:27.509Z,8.49
2019-03-18T09:35:28.990Z,8.47
2019-03-18T09:36:30.273Z,8.42
2019-03-18T09:37:31.676Z,8.40
2019-03-18T09:38:33.065Z,8.52
2019-03-18T09:39:34.454Z,8.60
2019-03-18T09:40:35.863Z,8.58
2019-03-18T09:41:37.251Z,8.55
2019-03-18T09:42:38.641Z,8.55
2019-03-18T09:43:40.035Z,8.64
2019-03-18T09:44:41.426Z,8.68
2019-03-18T09:45:42.829Z,8.61
2019-03-18T09:46:44.232Z,8.61
2019-03-18T09:47:45.622Z,8.61
2019-03-18T09:48:47.014Z,8.71
2019-03-18T09:49:48.414Z,8.68
2019-03-18T09:50:49.809Z,8.67
2019-03-18T09:51:51.203Z,8.67
2019-03-18T09:52:52.590Z,8.67
2019-03-18T09:53:53.994Z,8.73
2019-03-18T09:54:55.391Z,8.79
2019-03-18T09:55:56.793Z,8.80
2019-03-18T09:56:58.191Z,8.83
2019-03-18T09:57:59.578Z,8.89
2019-03-18T09:59:00.988Z,8.78
2019-03-18T10:00:02.378Z,8.88
2019-03-18T10:01:03.779Z,8.89
2019-03-18T10:02:05.196Z,8.91
2019-03-18T10:03:06.592Z,8.88
2019-03-18T10:04:07.991Z,8.96
2019-03-18T10:05:09.386Z,8.94
2019-03-18T10:06:10.785Z,8.98
2019-03-18T10:07:12.187Z,8.93
2019-03-18T10:08:13.603Z,8.86
2019-03-18T10:09:14.985Z,8.85
2019-03-18T10:10:16.393Z,8.86
2019-03-18T10:11:17.791Z,8.94
2019-03-18T10:12:19.181Z,8.88
2019-03-18T10:13:20.577Z,8.85
2019-03-18T10:14:21.978Z,8.89
2019-03-18T10:15:23.386Z,8.85
2019-03-18T10:16:24.773Z,8.83
2019-03-18T10:17:26.170Z,9.13
2019-03-18T10:18:27.568Z,9.23
2019-03-18T10:19:33.515Z,9.31
2019-03-18T10:20:30.327Z,9.27
2019-03-18T10:21:31.720Z,9.32
2019-03-18T10:22:35.843Z,9.30
2019-03-18T10:23:34.540Z,9.27
2019-03-18T10:24:35.814Z,9.20
2019-03-18T10:25:37.206Z,9.23
2019-03-18T10:26:38.618Z,9.13
2019-03-18T10:27:40.044Z,9.13
2019-03-18T10:28:41.465Z,9.17
2019-03-18T10:29:42.972Z,9.01
2019-03-18T10:30:44.415Z,8.98
2019-03-18T10:31:45.842Z,9.03
2019-03-18T10:32:47.253Z,9.01
2019-03-18T10:33:48.679Z,9.01
2019-03-18T10:34:50.153Z,9.03
2019-03-18T10:35:53.938Z,8.96
2019-03-18T10:36:52.977Z,9.01
2019-03-18T10:37:54.407Z,9.19
2019-03-18T10:38:55.873Z,9.30
2019-03-18T10:39:57.297Z,9.34
2019-03-18T10:40:59.710Z,9.32
2019-03-18T10:42:00.116Z,9.52
2019-03-18T10:43:01.522Z,9.63
2019-03-18T10:44:02.913Z,9.70
2019-03-18T10:45:04.351Z,9.88
2019-03-18T10:46:05.767Z,10.11
2019-03-18T10:47:07.244Z,10.28
2019-03-18T10:48:08.652Z,10.29
2019-03-18T10:49:10.135Z,10.35
2019-03-18T10:50:11.546Z,10.47
2019-03-18T10:51:12.999Z,10.58
2019-03-18T10:52:14.472Z,10.75
2019-03-18T10:53:15.916Z,10.75
2019-03-18T10:54:26.223Z,10.78
2019-03-18T10:55:18.778Z,10.76
2019-03-18T10:56:20.192Z,10.88
2019-03-18T10:57:21.629Z,10.93
2019-03-18T10:58:23.073Z,11.02
2019-03-18T10:59:24.511Z,10.93
2019-03-18T11:00:26.038Z,11.12
2019-03-18T11:01:27.434Z,11.13
2019-03-18T11:02:28.947Z,11.19
2019-03-18T11:03:30.381Z,11.16
2019-03-18T11:04:31.815Z,10.90
2019-03-18T11:05:33.270Z,10.73
2019-03-18T11:06:34.715Z,10.58
2019-03-18T11:07:36.175Z,10.52
2019-03-18T11:08:37.600Z,10.31
2019-03-18T11:09:39.043Z,10.26
2019-03-18T11:10:40.537Z,10.07
2019-03-18T11:11:41.950Z,10.07
2019-03-18T11:12:44.367Z,9.93
2019-03-18T11:13:45.789Z,9.78
2019-03-18T11:14:47.235Z,9.78
2019-03-18T11:15:48.670Z,9.59
2019-03-18T11:16:52.371Z,9.50
2019-03-18T11:17:51.563Z,9.45
2019-03-18T11:18:52.976Z,9.45
2019-03-18T11:19:58.763Z,9.37
2019-03-18T11:20:55.796Z,9.40
2019-03-18T11:21:57.222Z,9.40
2019-03-18T11:22:58.664Z,9.48
2019-03-18T11:24:00.560Z,9.60
2019-03-18T11:25:01.990Z,9.65
2019-03-18T11:26:03.402Z,9.91
2019-03-18T11:27:04.862Z,10.17
2019-03-18T11:28:06.259Z,10.69
2019-03-18T11:29:08.335Z,10.90
2019-03-18T11:30:09.795Z,11.01
2019-03-18T11:31:11.195Z,11.01
2019-03-18T11:32:12.591Z,11.09
2019-03-18T11:33:13.995Z,11.42
2019-03-18T11:34:15.401Z,11.46
2019-03-18T11:35:16.848Z,11.60
2019-03-18T11:36:18.251Z,11.56
2019-03-18T11:37:19.669Z,11.56
2019-03-18T11:38:21.088Z,11.54
2019-03-18T11:39:22.526Z,11.46
2019-03-18T11:40:23.977Z,11.35
2019-03-18T11:41:25.376Z,11.21
2019-03-18T11:42:26.778Z,11.11
2019-03-18T11:43:28.218Z,10.98
2019-03-18T11:44:29.622Z,11.02
2019-03-18T11:45:31.026Z,10.94
2019-03-18T11:46:32.466Z,11.12
2019-03-18T11:47:33.872Z,11.01
2019-03-18T11:48:35.320Z,10.81
2019-03-18T11:49:39.918Z,10.65
2019-03-18T11:50:38.149Z,10.52
2019-03-18T11:51:39.575Z,10.42
2019-03-18T11:52:40.994Z,10.47
2019-03-18T11:53:42.436Z,10.52
2019-03-18T11:54:43.875Z,10.55
2019-03-18T11:55:45.291Z,10.57
2019-03-18T11:56:46.715Z,10.70
2019-03-18T11:57:48.109Z,10.86
2019-03-18T11:58:49.526Z,10.98
2019-03-18T11:59:50.968Z,10.95
2019-03-18T12:00:52.366Z,11.16
2019-03-18T12:01:53.771Z,11.11
2019-03-18T12:02:55.195Z,11.12
2019-03-18T12:03:56.591Z,11.12
2019-03-18T12:04:58.048Z,11.19
2019-03-18T12:05:59.451Z,11.05
2019-03-18T12:07:00.977Z,11.17
2019-03-18T12:08:03.182Z,11.08
2019-03-18T12:09:04.579Z,11.02
2019-03-18T12:10:05.966Z,10.99
2019-03-18T12:11:07.376Z,10.95
2019-03-18T12:12:08.821Z,10.78
2019-03-18T12:13:10.225Z,10.72
2019-03-18T12:14:11.632Z,10.57
2019-03-18T12:15:13.042Z,10.52
2019-03-18T12:16:14.439Z,10.51
2019-03-18T12:17:15.882Z,10.44
2019-03-18T12:18:17.290Z,10.49
2019-03-18T12:19:18.685Z,10.36
2019-03-18T12:20:24.700Z,10.25
2019-03-18T12:21:21.454Z,10.20
2019-03-18T12:22:22.844Z,10.06
2019-03-18T12:23:24.266Z,9.86
2019-03-18T12:24:25.680Z,9.85
2019-03-18T12:25:27.086Z,9.73
2019-03-18T12:26:28.483Z,9.67
2019-03-18T12:27:29.895Z,9.74
2019-03-18T12:28:31.312Z,9.75
2019-03-18T12:29:32.725Z,9.70
2019-03-18T12:30:34.201Z,9.77
2019-03-18T12:31:35.515Z,9.81
2019-03-18T12:32:37.689Z,9.95
2019-03-18T12:33:39.089Z,9.93
2019-03-18T12:34:40.510Z,10.01
2019-03-18T12:35:41.880Z,10.07
2019-03-18T12:36:43.302Z,10.09
2019-03-18T12:37:44.721Z,10.22
2019-03-18T12:38:46.169Z,10.36
2019-03-18T12:39:47.546Z,10.46
2019-03-18T12:40:48.988Z,10.46
2019-03-18T12:41:50.418Z,10.49
2019-03-18T12:42:51.844Z,10.47
2019-03-18T12:43:53.276Z,10.55
2019-03-18T12:44:54.744Z,10.60
2019-03-18T12:45:56.155Z,10.60
2019-03-18T12:46:57.574Z,10.60
2019-03-18T12:47:59.004Z,10.57
2019-03-18T12:49:00.426Z,10.49
2019-03-18T12:50:01.883Z,10.43
2019-03-18T12:51:03.353Z,10.35
2019-03-18T12:52:04.825Z,10.44
2019-03-18T12:53:06.265Z,10.49
2019-03-18T12:54:07.714Z,10.46
2019-03-18T12:55:09.159Z,10.51
2019-03-18T12:56:10.621Z,10.54
2019-03-18T12:57:12.056Z,10.49
2019-03-18T12:58:13.492Z,10.47
2019-03-18T12:59:14.985Z,10.58
2019-03-18T13:00:16.433Z,10.66
2019-03-18T13:01:17.921Z,10.80
2019-03-18T13:02:19.412Z,10.93
2019-03-18T13:03:20.875Z,10.90
2019-03-18T13:04:23.142Z,10.86
2019-03-18T13:05:24.685Z,10.91
2019-03-18T13:06:26.130Z,10.84
2019-03-18T13:07:27.584Z,10.90
2019-03-18T13:08:29.030Z,10.88
2019-03-18T13:09:30.456Z,10.91
2019-03-18T13:10:31.894Z,10.93
2019-03-18T13:11:33.305Z,11.01
2019-03-18T13:12:34.722Z,11.03
2019-03-18T13:13:36.185Z,10.99
2019-03-18T13:14:37.638Z,11.08
2019-03-18T13:15:39.061Z,11.11
2019-03-18T13:16:40.504Z,11.09
2019-03-18T13:17:43.892Z,11.26
2019-03-18T13:18:43.313Z,11.16
2019-03-18T13:19:44.773Z,11.21
2019-03-18T13:20:46.207Z,11.17
2019-03-18T13:21:47.646Z,11.17
2019-03-18T13:22:49.139Z,11.20
2019-03-18T13:23:50.603Z,11.24
2019-03-18T13:24:52.029Z,11.13
2019-03-18T13:25:53.463Z,11.12
2019-03-18T13:26:54.894Z,11.26
2019-03-18T13:27:56.291Z,11.20
2019-03-18T13:28:57.788Z,11.17
2019-03-18T13:29:59.202Z,11.08
2019-03-18T13:31:00.603Z,11.06
2019-03-18T13:32:02.030Z,11.01